createdAt,value
2023-04-18T00:01:48.999Z,8.70
2023-04-18T00:04:18.376Z,8.60
2023-04-18T00:06:47.230Z,8.60
2023-04-18T00:09:14.097Z,8.50
2023-04-18T00:11:43.543Z,8.40
2023-04-18T00:14:10.475Z,8.40
2023-04-18T00:16:38.272Z,8.30
2023-04-18T00:19:05.356Z,8.20
2023-04-18T00:21:32.136Z,8.20
2023-04-18T00:23:59.078Z,8.20
2023-04-18T00:26:27.127Z,8.10
2023-04-18T00:28:54.219Z,8.10
2023-04-18T00:31:21.029Z,8.00
2023-04-18T00:33:47.851Z,8.00
2023-04-18T00:36:15.506Z,8.00
2023-04-18T00:38:42.492Z,7.90
2023-04-18T00:41:09.241Z,7.90
2023-04-18T00:43:37.082Z,7.90
2023-04-18T00:46:03.856Z,7.90
2023-04-18T00:48:31.104Z,7.80
2023-04-18T00:50:58.088Z,7.80
2023-04-18T00:53:25.184Z,7.70
2023-04-18T00:55:52.772Z,7.70
2023-04-18T00:58:20.247Z,7.70
2023-04-18T01:00:47.956Z,7.70
2023-04-18T01:03:14.802Z,7.60
2023-04-18T01:05:41.776Z,7.60
2023-04-18T01:08:08.571Z,7.60
2023-04-18T01:10:35.972Z,7.50
2023-04-18T01:13:17.367Z,7.50
2023-04-18T01:15:46.306Z,7.50
2023-04-18T01:18:17.887Z,7.40
2023-04-18T01:20:47.416Z,7.40
2023-04-18T01:23:15.820Z,7.50
2023-04-18T01:25:43.103Z,7.50
2023-04-18T01:28:14.085Z,7.50
2023-04-18T01:30:41.519Z,7.50
2023-04-18T01:33:08.350Z,7.60
2023-04-18T01:35:35.243Z,7.60
2023-04-18T01:38:02.012Z,7.70
2023-04-18T01:40:29.967Z,7.70
2023-04-18T01:42:56.779Z,7.80
2023-04-18T01:45:23.561Z,7.80
2023-04-18T01:47:50.428Z,7.80
2023-04-18T01:50:17.271Z,7.80
2023-04-18T01:52:43.981Z,7.90
2023-04-18T01:55:10.991Z,7.90
2023-04-18T01:57:38.293Z,7.90
2023-04-18T02:00:06.516Z,7.80
2023-04-18T02:02:41.580Z,7.80
2023-04-18T02:05:09.369Z,7.90
2023-04-18T02:07:38.924Z,7.90
2023-04-18T02:10:06.196Z,7.90
2023-04-18T02:12:34.226Z,7.80
2023-04-18T02:15:01.383Z,7.80
2023-04-18T02:17:28.921Z,7.80
2023-04-18T02:19:56.210Z,7.80
2023-04-18T02:22:23.096Z,7.90
2023-04-18T02:24:49.801Z,7.90
2023-04-18T02:27:18.058Z,7.90
2023-04-18T02:29:44.792Z,7.90
2023-04-18T02:32:11.641Z,7.90
2023-04-18T02:34:38.502Z,7.90
2023-04-18T02:37:05.386Z,8.00
2023-04-18T02:39:32.626Z,7.80
2023-04-18T02:41:59.735Z,7.80
2023-04-18T02:44:26.530Z,7.90
2023-04-18T02:46:53.318Z,7.90
2023-04-18T02:49:20.331Z,7.80
2023-04-18T02:51:47.925Z,7.80
2023-04-18T02:54:16.009Z,7.90
2023-04-18T02:57:04.400Z,7.80
2023-04-18T02:59:52.546Z,7.70
2023-04-18T03:02:53.138Z,7.80
2023-04-18T03:05:40.330Z,7.70
2023-04-18T03:08:07.540Z,7.70
2023-04-18T03:10:36.497Z,7.80
2023-04-18T03:13:04.119Z,7.80
2023-04-18T03:15:33.972Z,7.70
2023-04-18T03:18:01.285Z,7.80
2023-04-18T03:20:32.117Z,7.80
2023-04-18T03:22:58.867Z,7.80
2023-04-18T03:25:27.536Z,7.80
2023-04-18T03:27:54.318Z,7.70
2023-04-18T03:30:22.811Z,7.80
2023-04-18T03:32:55.980Z,7.70
2023-04-18T03:35:22.988Z,7.80
2023-04-18T03:37:50.469Z,7.70
2023-04-18T03:40:26.006Z,7.70
2023-04-18T03:42:56.493Z,7.70
2023-04-18T03:45:23.235Z,7.70
2023-04-18T03:47:50.324Z,7.70
2023-04-18T03:50:22.670Z,7.60
2023-04-18T03:52:50.003Z,7.40
2023-04-18T03:55:19.589Z,7.40
2023-04-18T03:57:47.142Z,7.30
2023-04-18T04:00:21.262Z,7.20
2023-04-18T04:02:58.234Z,7.20
2023-04-18T04:05:27.827Z,7.10
2023-04-18T04:07:54.836Z,7.00
2023-04-18T04:10:21.721Z,7.00
2023-04-18T04:12:49.748Z,6.90
2023-04-18T04:15:17.037Z,6.90
2023-04-18T04:17:52.579Z,6.90
2023-04-18T04:20:24.642Z,6.90
2023-04-18T04:23:00.765Z,6.80
2023-04-18T04:25:28.665Z,6.70
2023-04-18T04:28:01.363Z,6.70
2023-04-18T04:30:28.656Z,6.70
2023-04-18T04:32:55.491Z,6.70
2023-04-18T04:35:22.279Z,6.60
2023-04-18T04:37:51.702Z,6.60
2023-04-18T04:40:25.769Z,6.60
2023-04-18T04:42:56.745Z,6.50
2023-04-18T04:45:30.015Z,6.60
2023-04-18T04:47:56.928Z,6.60
2023-04-18T04:50:24.926Z,6.50
2023-04-18T04:52:51.675Z,6.50
2023-04-18T04:55:19.002Z,6.50
2023-04-18T04:57:45.862Z,6.60
2023-04-18T05:00:26.925Z,6.60
2023-04-18T05:02:57.300Z,6.70
2023-04-18T05:05:26.067Z,6.90
2023-04-18T05:07:52.849Z,6.90
2023-04-18T05:10:19.738Z,7.00
2023-04-18T05:12:46.564Z,7.00
2023-04-18T05:15:15.844Z,7.00
2023-04-18T05:17:42.683Z,7.10
2023-04-18T05:20:10.128Z,7.20
2023-04-18T05:22:36.947Z,7.30
2023-04-18T05:25:03.924Z,7.20
2023-04-18T05:27:30.644Z,7.20
2023-04-18T05:29:57.365Z,7.20
2023-04-18T05:32:24.165Z,7.20
2023-04-18T05:34:51.185Z,7.20
2023-04-18T05:37:17.946Z,7.20
2023-04-18T05:39:44.767Z,7.20
2023-04-18T05:42:11.481Z,7.20
2023-04-18T05:44:38.153Z,7.30
2023-04-18T05:47:07.952Z,7.30
2023-04-18T05:49:34.661Z,7.40
2023-04-18T05:52:01.515Z,7.50
2023-04-18T05:54:28.304Z,7.60
2023-04-18T05:56:55.195Z,7.60
2023-04-18T05:59:21.930Z,7.70
2023-04-18T06:01:49.388Z,7.70
2023-04-18T06:04:17.051Z,7.80
2023-04-18T06:06:44.104Z,7.90
2023-04-18T06:09:11.114Z,8.00
2023-04-18T06:11:37.907Z,8.00
2023-04-18T06:14:04.638Z,8.10
2023-04-18T06:16:31.409Z,8.10
2023-04-18T06:19:00.922Z,8.00
2023-04-18T06:21:29.242Z,8.00
2023-04-18T06:23:55.947Z,8.00
2023-04-18T06:26:22.705Z,8.10
2023-04-18T06:28:49.443Z,8.20
2023-04-18T06:31:16.392Z,8.20
2023-04-18T06:33:43.202Z,8.20
2023-04-18T06:36:10.227Z,8.30
2023-04-18T06:38:36.972Z,8.30
2023-04-18T06:41:07.114Z,8.20
2023-04-18T06:43:35.738Z,8.20
2023-04-18T06:46:06.051Z,8.20
2023-04-18T06:48:32.970Z,8.10
2023-04-18T06:51:02.714Z,8.20
2023-04-18T06:53:29.569Z,8.40
2023-04-18T06:55:56.297Z,8.60
2023-04-18T06:58:23.056Z,9.00
2023-04-18T07:00:52.007Z,9.30
2023-04-18T07:03:18.991Z,9.50
2023-04-18T07:05:45.824Z,9.70
2023-04-18T07:08:12.715Z,9.80
2023-04-18T07:10:39.487Z,9.90
2023-04-18T07:13:06.356Z,9.90
2023-04-18T07:15:35.191Z,10.10
2023-04-18T07:18:01.952Z,10.10
2023-04-18T07:20:28.739Z,10.10
2023-04-18T07:22:55.460Z,10.00
2023-04-18T07:25:22.149Z,9.70
2023-04-18T07:27:48.858Z,9.60
2023-04-18T07:30:15.734Z,9.60
2023-04-18T07:32:42.557Z,9.60
2023-04-18T07:35:09.784Z,9.80
2023-04-18T07:37:36.545Z,9.90
2023-04-18T07:40:04.286Z,9.80
2023-04-18T07:42:31.078Z,9.70
2023-04-18T07:44:58.911Z,9.80
2023-04-18T07:47:29.978Z,9.80
2023-04-18T07:49:57.902Z,9.70
2023-04-18T07:52:24.680Z,9.60
2023-04-18T07:54:51.385Z,9.60
2023-04-18T07:57:18.142Z,9.50
2023-04-18T07:59:44.907Z,9.60
2023-04-18T08:02:11.696Z,9.80
2023-04-18T08:04:38.735Z,10.10
2023-04-18T08:07:05.711Z,10.20
2023-04-18T08:09:32.497Z,10.40
2023-04-18T08:11:59.523Z,10.50
2023-04-18T08:14:26.355Z,10.50
2023-04-18T08:16:53.207Z,10.60
2023-04-18T08:19:19.891Z,10.40
2023-04-18T08:21:49.340Z,10.20
2023-04-18T08:24:16.069Z,10.40
2023-04-18T08:26:42.792Z,10.60
2023-04-18T08:29:09.484Z,10.70
2023-04-18T08:31:36.353Z,10.80
2023-04-18T08:34:04.954Z,11.10
2023-04-18T08:36:31.956Z,11.30
2023-04-18T08:38:58.658Z,11.50
2023-04-18T08:41:26.811Z,11.30
2023-04-18T08:43:55.247Z,11.40
2023-04-18T08:46:23.937Z,11.40
2023-04-18T08:48:51.349Z,11.30
2023-04-18T08:51:18.524Z,11.00
2023-04-18T08:53:45.455Z,11.10
2023-04-18T08:56:14.597Z,11.40
2023-04-18T08:58:41.580Z,11.50
2023-04-18T09:01:08.805Z,11.80
2023-04-18T09:03:39.089Z,11.60
2023-04-18T09:06:08.416Z,11.90
2023-04-18T09:08:35.543Z,12.00
2023-04-18T09:11:26.017Z,12.40
2023-04-18T09:13:55.940Z,12.20
2023-04-18T09:16:23.663Z,12.30
2023-04-18T09:19:18.453Z,12.40
2023-04-18T09:21:48.914Z,12.40
2023-04-18T09:24:26.961Z,12.30
2023-04-18T09:26:55.827Z,12.10
2023-04-18T09:29:41.039Z,11.70
2023-04-18T09:39:09.226Z,12.20
2023-04-18T09:41:36.010Z,12.50
2023-04-18T09:44:15.848Z,12.40
2023-04-18T09:46:54.989Z,12.20
2023-04-18T09:49:22.699Z,12.30
2023-04-18T09:51:51.841Z,12.50
2023-04-18T09:54:20.091Z,12.40
2023-04-18T09:56:50.624Z,12.50
2023-04-18T09:59:32.901Z,12.40
2023-04-18T10:02:02.159Z,12.40
2023-04-18T10:04:30.960Z,12.70
2023-04-18T10:06:58.712Z,12.80
2023-04-18T10:09:25.885Z,12.80
2023-04-18T10:11:54.529Z,12.70
2023-04-18T10:14:22.622Z,12.70
2023-04-18T10:16:50.601Z,12.90
2023-04-18T10:19:28.430Z,12.70
2023-04-18T10:22:00.994Z,13.00
2023-04-18T10:24:50.013Z,13.00
2023-04-18T10:27:17.854Z,13.00
2023-04-18T10:29:54.481Z,13.00
2023-04-18T10:32:24.187Z,12.90
2023-04-18T10:34:53.499Z,13.10
2023-04-18T10:37:20.337Z,13.40
2023-04-18T10:39:50.404Z,13.70
2023-04-18T10:42:17.942Z,14.00
2023-04-18T10:45:17.024Z,13.80
2023-04-18T10:47:44.013Z,13.70
2023-04-18T10:50:11.820Z,14.00
2023-04-18T10:52:39.092Z,14.50
2023-04-18T10:55:10.946Z,14.80
2023-04-18T10:57:43.072Z,14.80
2023-04-18T11:00:13.627Z,14.90
2023-04-18T11:02:47.612Z,15.00
2023-04-18T11:05:19.843Z,15.00
2023-04-18T11:07:48.655Z,15.00
2023-04-18T11:10:21.528Z,14.90
2023-04-18T11:12:49.073Z,14.40
2023-04-18T11:15:21.993Z,14.40
2023-04-18T11:18:02.872Z,14.50
2023-04-18T11:20:37.346Z,14.70
2023-04-18T11:23:04.168Z,14.90
2023-04-18T11:25:35.071Z,14.90
2023-04-18T11:28:04.368Z,15.10
2023-04-18T11:30:39.398Z,15.10
2023-04-18T11:33:08.357Z,15.20
2023-04-18T11:35:43.403Z,15.10
2023-04-18T11:38:12.406Z,15.20
2023-04-18T11:40:39.663Z,14.80
2023-04-18T11:43:07.565Z,14.80
2023-04-18T11:45:34.578Z,14.80
2023-04-18T11:48:01.626Z,15.00
2023-04-18T11:50:28.417Z,15.30
2023-04-18T11:52:55.886Z,15.40
2023-04-18T11:55:25.061Z,15.30
2023-04-18T11:57:56.862Z,15.70
2023-04-18T12:00:38.600Z,16.00
2023-04-18T12:03:08.118Z,16.00
2023-04-18T12:05:37.534Z,15.90
2023-04-18T12:08:19.160Z,15.90
2023-04-18T12:10:50.704Z,15.60
2023-04-18T12:13:17.934Z,15.20
2023-04-18T12:15:46.462Z,14.80
2023-04-18T12:18:15.304Z,15.10
2023-04-18T12:20:54.050Z,15.50
2023-04-18T12:23:38.296Z,15.50
2023-04-18T12:26:07.227Z,15.40
2023-04-18T12:28:35.490Z,15.40
2023-04-18T12:31:04.183Z,15.50
2023-04-18T12:33:30.965Z,15.70
2023-04-18T12:35:57.882Z,15.80
2023-04-18T12:38:24.779Z,15.50
2023-04-18T12:40:53.860Z,15.20
2023-04-18T12:43:21.240Z,15.20
2023-04-18T12:45:49.533Z,15.20
2023-04-18T12:48:16.341Z,15.10
2023-04-18T12:50:43.165Z,15.20
2023-04-18T12:53:09.925Z,15.50
2023-04-18T12:55:36.973Z,15.70
2023-04-18T12:58:03.847Z,15.90
2023-04-18T13:00:32.789Z,15.40
2023-04-18T13:03:00.942Z,15.40
2023-04-18T13:05:32.986Z,15.50
2023-04-18T13:10:30.999Z,15.40
2023-04-18T13:12:57.783Z,15.50
2023-04-18T13:15:26.223Z,15.60
2023-04-18T13:17:53.303Z,15.80
2023-04-18T13:20:23.001Z,15.90
2023-04-18T13:22:49.710Z,15.90
2023-04-18T13:25:16.768Z,15.90
2023-04-18T13:27:45.123Z,15.80
2023-04-18T13:30:12.201Z,15.70
2023-04-18T13:32:40.835Z,15.50
2023-04-18T13:35:10.307Z,15.60
2023-04-18T13:37:37.984Z,15.50
2023-04-18T13:40:06.558Z,15.40
2023-04-18T13:42:37.490Z,15.50
2023-04-18T13:45:04.720Z,15.70
2023-04-18T13:47:31.578Z,15.60
2023-04-18T13:49:58.480Z,15.60
2023-04-18T13:52:26.107Z,15.70
2023-04-18T13:54:53.157Z,15.90
2023-04-18T13:57:27.252Z,16.00
2023-04-18T14:00:00.632Z,16.00
2023-04-18T14:02:27.774Z,16.00
2023-04-18T14:04:55.129Z,15.90
2023-04-18T14:07:22.108Z,16.00
2023-04-18T14:09:48.949Z,16.20
2023-04-18T14:12:15.719Z,16.20
2023-04-18T14:14:42.779Z,16.30
2023-04-18T14:17:09.730Z,16.40
2023-04-18T14:19:36.422Z,16.30
2023-04-18T14:22:03.255Z,16.50
2023-04-18T14:24:30.112Z,16.80
2023-04-18T14:26:56.888Z,16.80
2023-04-18T14:29:23.637Z,16.70
2023-04-18T14:31:50.606Z,16.40
2023-04-18T14:34:18.162Z,16.10
2023-04-18T14:36:44.861Z,15.90
2023-04-18T14:39:11.793Z,15.80
2023-04-18T14:41:38.650Z,15.80
2023-04-18T14:44:05.802Z,15.50
2023-04-18T14:46:32.614Z,15.50
2023-04-18T14:49:00.130Z,15.50
2023-04-18T14:51:27.655Z,15.60
2023-04-18T14:53:55.535Z,15.70
2023-04-18T14:56:24.275Z,15.80
2023-04-18T14:58:51.123Z,15.70
2023-04-18T15:01:17.842Z,15.70
2023-04-18T15:03:45.601Z,15.70
2023-04-18T15:06:12.592Z,15.60
2023-04-18T15:08:39.310Z,15.50
2023-04-18T15:11:09.442Z,15.60
2023-04-18T15:13:36.465Z,15.70
2023-04-18T15:16:03.422Z,15.80
2023-04-18T15:18:30.337Z,16.00
2023-04-18T15:21:00.611Z,16.00
2023-04-18T15:23:28.050Z,15.80
2023-04-18T15:25:54.849Z,15.80
2023-04-18T15:28:22.980Z,15.60
2023-04-18T15:30:49.753Z,15.40
2023-04-18T15:33:19.000Z,15.30
2023-04-18T15:35:48.294Z,15.30
2023-04-18T15:38:15.193Z,15.30
2023-04-18T15:40:43.429Z,15.30
2023-04-18T15:43:10.318Z,15.40
2023-04-18T15:45:37.399Z,15.50
2023-04-18T15:48:04.384Z,15.60
2023-04-18T15:50:33.831Z,15.70
2023-04-18T15:53:01.873Z,15.70
2023-04-18T15:55:28.623Z,15.70
2023-04-18T15:57:55.552Z,15.50
2023-04-18T16:00:23.249Z,15.40
2023-04-18T16:02:52.741Z,15.30
2023-04-18T16:05:19.532Z,15.30
2023-04-18T16:07:46.468Z,15.30
2023-04-18T16:10:15.273Z,15.30
2023-04-18T16:12:42.459Z,15.40
2023-04-18T16:15:10.238Z,15.30
2023-04-18T16:17:37.844Z,15.20
2023-04-18T16:20:09.239Z,15.20
2023-04-18T16:22:36.455Z,15.10
2023-04-18T16:25:06.594Z,15.10
2023-04-18T16:27:33.706Z,15.20
2023-04-18T16:30:00.650Z,15.20
2023-04-18T16:32:27.443Z,15.20
2023-04-18T16:34:54.261Z,15.30
2023-04-18T16:37:21.133Z,15.40
2023-04-18T16:39:48.147Z,15.50
2023-04-18T16:42:15.785Z,15.50
2023-04-18T16:44:44.789Z,15.50
2023-04-18T16:47:11.767Z,15.40
2023-04-18T16:49:38.888Z,15.40
2023-04-18T16:52:08.457Z,15.30
2023-04-18T16:54:35.362Z,15.20
2023-04-18T16:57:02.865Z,15.20
2023-04-18T16:59:29.608Z,15.10
2023-04-18T17:01:56.494Z,15.00
2023-04-18T17:04:23.512Z,15.00
2023-04-18T17:06:51.989Z,14.90
2023-04-18T17:09:19.796Z,14.80
2023-04-18T17:11:46.537Z,14.70
2023-04-18T17:14:13.676Z,14.60
2023-04-18T17:16:41.814Z,14.50
2023-04-18T17:19:09.756Z,14.50
2023-04-18T17:21:37.329Z,14.40
2023-04-18T17:24:09.180Z,14.30
2023-04-18T17:26:38.096Z,14.20
2023-04-18T17:29:05.416Z,14.10
2023-04-18T17:31:32.824Z,14.10
2023-04-18T17:34:00.673Z,14.00
2023-04-18T17:36:27.778Z,14.00
2023-04-18T17:38:54.627Z,13.90
2023-04-18T17:41:21.951Z,13.90
2023-04-18T17:43:51.039Z,13.90
2023-04-18T17:46:18.173Z,13.90
2023-04-18T17:48:47.344Z,13.80
2023-04-18T17:51:16.232Z,13.80
2023-04-18T17:53:43.268Z,13.70
2023-04-18T17:56:10.107Z,13.60
2023-04-18T17:58:37.027Z,13.60
2023-04-18T18:01:03.805Z,13.60
2023-04-18T18:03:30.959Z,13.60
2023-04-18T18:05:58.310Z,13.50
2023-04-18T18:08:25.728Z,13.50
2023-04-18T18:10:52.516Z,13.50
2023-04-18T18:13:19.282Z,13.40
2023-04-18T18:15:46.273Z,13.30
2023-04-18T18:18:26.744Z,13.30
2023-04-18T18:20:53.457Z,13.30
2023-04-18T18:23:20.210Z,13.30
2023-04-18T18:25:47.151Z,13.20
2023-04-18T18:28:14.059Z,13.10
2023-04-18T18:30:40.792Z,13.10
2023-04-18T18:33:07.714Z,13.10
2023-04-18T18:35:37.487Z,13.00
2023-04-18T18:38:06.101Z,12.90
2023-04-18T18:40:32.928Z,12.90
2023-04-18T18:42:59.728Z,12.90
2023-04-18T18:45:27.380Z,12.80
2023-04-18T18:47:54.271Z,12.70
2023-04-18T18:50:21.186Z,12.70
2023-04-18T18:52:53.719Z,12.70
2023-04-18T18:55:20.616Z,12.70
2023-04-18T18:57:47.337Z,12.70
2023-04-18T19:00:14.565Z,12.60
2023-04-18T19:02:42.029Z,12.60
2023-04-18T19:05:12.866Z,12.60
2023-04-18T19:07:45.399Z,12.50
2023-04-18T19:10:14.246Z,12.50
2023-04-18T19:12:44.787Z,12.40
2023-04-18T19:15:12.996Z,12.40
2023-04-18T19:17:40.249Z,12.30
2023-04-18T19:20:09.381Z,12.30
2023-04-18T19:22:37.554Z,12.20
2023-04-18T19:25:05.955Z,12.20
2023-04-18T19:27:33.410Z,12.20
2023-04-18T19:30:03.417Z,12.20
2023-04-18T19:32:33.808Z,12.20
2023-04-18T19:35:04.532Z,12.10
2023-04-18T19:37:31.829Z,12.10
2023-04-18T19:39:58.624Z,12.10
2023-04-18T19:42:28.485Z,12.00
2023-04-18T19:44:56.380Z,12.00
2023-04-18T19:47:23.099Z,11.90
2023-04-18T19:49:49.815Z,11.90
2023-04-18T19:52:18.333Z,11.80
2023-04-18T19:54:45.137Z,11.80
2023-04-18T19:57:12.032Z,11.90
2023-04-18T19:59:39.343Z,11.80
2023-04-18T20:02:06.738Z,11.80
2023-04-18T20:04:34.286Z,11.70
2023-04-18T20:07:01.422Z,11.70
2023-04-18T20:09:28.483Z,11.70
2023-04-18T20:11:55.584Z,11.70
2023-04-18T20:14:22.322Z,11.70
2023-04-18T20:16:49.706Z,11.60
2023-04-18T20:19:19.488Z,11.60
2023-04-18T20:21:46.202Z,11.60
2023-04-18T20:24:13.643Z,11.60
2023-04-18T20:26:41.184Z,11.50
2023-04-18T20:29:08.227Z,11.50
2023-04-18T20:31:36.261Z,11.50
2023-04-18T20:34:03.062Z,11.50
2023-04-18T20:36:31.048Z,11.40
2023-04-18T20:39:00.159Z,11.40
2023-04-18T20:41:32.628Z,11.40
2023-04-18T20:43:59.924Z,11.40
2023-04-18T20:46:26.738Z,11.40
2023-04-18T20:48:53.568Z,11.40
2023-04-18T20:51:20.407Z,11.40
2023-04-18T20:53:47.255Z,11.30
2023-04-18T20:56:13.985Z,11.30
2023-04-18T20:58:41.893Z,11.30
2023-04-18T21:01:08.719Z,11.30
2023-04-18T21:03:35.883Z,11.30
2023-04-18T21:06:02.822Z,11.30
2023-04-18T21:08:29.809Z,11.20
2023-04-18T21:10:56.595Z,11.20
2023-04-18T21:13:24.166Z,11.20
2023-04-18T21:15:51.954Z,11.20
2023-04-18T21:18:19.154Z,11.20
2023-04-18T21:20:45.927Z,11.10
2023-04-18T21:23:12.727Z,11.10
2023-04-18T21:25:39.607Z,11.10
2023-04-18T21:28:06.546Z,11.10
2023-04-18T21:30:33.600Z,11.10
2023-04-18T21:33:00.440Z,11.10
2023-04-18T21:35:29.631Z,11.00
2023-04-18T21:37:56.954Z,11.00
2023-04-18T21:40:24.508Z,11.00
2023-04-18T21:42:51.844Z,11.00
2023-04-18T21:45:19.056Z,10.90
2023-04-18T21:47:45.852Z,10.90
2023-04-18T21:50:12.834Z,10.90
2023-04-18T21:52:39.604Z,10.90
2023-04-18T21:55:06.533Z,10.90
2023-04-18T21:57:33.275Z,10.90
2023-04-18T22:00:00.196Z,10.80
2023-04-18T22:02:27.413Z,10.80
2023-04-18T22:04:54.376Z,10.80
2023-04-18T22:07:21.683Z,10.80
2023-04-18T22:09:48.724Z,10.80
2023-04-18T22:12:15.700Z,10.80
2023-04-18T22:14:47.717Z,10.80
2023-04-18T22:17:14.495Z,10.80
2023-04-18T22:19:41.607Z,10.80
2023-04-18T22:22:08.336Z,10.70
2023-04-18T22:24:35.203Z,10.80
2023-04-18T22:27:02.799Z,10.70
2023-04-18T22:29:29.501Z,10.60
2023-04-18T22:31:56.235Z,10.60
2023-04-18T22:34:23.019Z,10.60
2023-04-18T22:36:49.977Z,10.60
2023-04-18T22:39:16.735Z,10.60
2023-04-18T22:41:43.497Z,10.60
2023-04-18T22:44:10.242Z,10.60
2023-04-18T22:46:38.575Z,10.60
2023-04-18T22:49:05.637Z,10.60
2023-04-18T22:51:32.591Z,10.60
2023-04-18T22:53:59.317Z,10.60
2023-04-18T22:56:26.121Z,10.60
2023-04-18T22:58:53.000Z,10.50
2023-04-18T23:01:19.814Z,10.50
2023-04-18T23:03:46.713Z,10.40
2023-04-18T23:06:13.628Z,10.40
2023-04-18T23:08:40.534Z,10.40
2023-04-18T23:11:07.426Z,10.40
2023-04-18T23:13:34.152Z,10.40
2023-04-18T23:16:00.977Z,10.40
2023-04-18T23:18:34.060Z,10.40
2023-04-18T23:21:01.038Z,10.40
2023-04-18T23:23:27.772Z,10.30
2023-04-18T23:25:55.589Z,10.30
2023-04-18T23:28:22.506Z,10.30
2023-04-18T23:30:50.235Z,10.30
2023-04-18T23:33:16.990Z,10.30
2023-04-18T23:35:44.013Z,10.30
2023-04-18T23:38:11.086Z,10.20
2023-04-18T23:40:37.938Z,10.20
2023-04-18T23:43:04.763Z,10.20
2023-04-18T23:45:31.695Z,10.20
2023-04-18T23:47:58.721Z,10.20
2023-04-18T23:50:25.578Z,10.20
2023-04-18T23:52:52.584Z,10.20
2023-04-18T23:55:19.348Z,10.20
2023-04-18T23:57:46.133Z,10.20
